Aviation Digital Data Service (ADDS)

Output produced by METARs form (1157 UTC 08 December 2016)
found at http://aviationweather.gov/adds/metars/
 
METAR text: KSPB 081153Z AUTO 00000KT 10SM CLR M03/M06 A3008 RMK AO2 SLP187 T10331056 11011 21033 58032 TSNO
Conditions at: KSPB (SCAPPOOSE , OR, US) observed 1153 UTC 08 December 2016
Temperature: -3.3°C (26°F)
Dewpoint: -5.6°C (22°F) [RH = 84%]
Pressure (altimeter): 30.08 inches Hg (1018.7 mb)
[Sea-level pressure: 1018.7 mb]
Winds: calm
Visibility: 10 or more miles (16+ km)
Ceiling: at least 12,000 feet AGL
Clouds: sky clear below 12,000 feet AGL
Weather: automated observation with no human augmentation;
there may or may not be significant weather present at this time

METAR text: KSPB 081053Z AUTO 27003KT 10SM CLR M03/M06 A3013 RMK AO2 SLP203 T10281056 TSNO
Conditions at: KSPB (SCAPPOOSE , OR, US) observed 1053 UTC 08 December 2016
Temperature: -2.8°C (27°F)
Dewpoint: -5.6°C (22°F) [RH = 81%]
Pressure (altimeter): 30.13 inches Hg (1020.4 mb)
[Sea-level pressure: 1020.3 mb]
Winds: from the W (270 degrees) at 3 MPH (3 knots; 1.6 m/s)
Visibility: 10 or more miles (16+ km)
Ceiling: at least 12,000 feet AGL
Clouds: sky clear below 12,000 feet AGL
Weather: automated observation with no human augmentation;
there may or may not be significant weather present at this time